sensor_id;sensor_type;location;lat;lon;timestamp;P1;durP1;ratioP1;P2;durP2;ratioP2
1090;SDS011;534;48.704;9.122;2023-04-25T04:02:34;2.07;;;1.10;;
1090;SDS011;534;48.704;9.122;2023-04-25T04:05:02;2.57;;;1.03;;
1090;SDS011;534;48.704;9.122;2023-04-25T04:07:29;2.30;;;1.60;;
1090;SDS011;534;48.704;9.122;2023-04-25T04:09:57;1.83;;;1.10;;
1090;SDS011;534;48.704;9.122;2023-04-25T04:12:24;2.77;;;1.20;;
1090;SDS011;534;48.704;9.122;2023-04-25T04:14:51;2.00;;;1.17;;
1090;SDS011;534;48.704;9.122;2023-04-25T04:17:17;1.70;;;1.10;;
1090;SDS011;534;48.704;9.122;2023-04-25T04:19:45;2.37;;;1.30;;
1090;SDS011;534;48.704;9.122;2023-04-25T04:22:12;2.20;;;1.40;;
1090;SDS011;534;48.704;9.122;2023-04-25T04:24:39;2.10;;;1.20;;
1090;SDS011;534;48.704;9.122;2023-04-25T04:27:08;2.07;;;1.23;;
1090;SDS011;534;48.704;9.122;2023-04-25T04:29:35;1.93;;;1.23;;
1090;SDS011;534;48.704;9.122;2023-04-25T04:32:02;2.10;;;1.40;;
1090;SDS011;534;48.704;9.122;2023-04-25T04:34:29;1.90;;;1.20;;
1090;SDS011;534;48.704;9.122;2023-04-25T04:36:57;2.10;;;1.40;;
1090;SDS011;534;48.704;9.122;2023-04-25T04:39:25;2.30;;;1.50;;
1090;SDS011;534;48.704;9.122;2023-04-25T04:41:51;2.13;;;1.20;;
1090;SDS011;534;48.704;9.122;2023-04-25T04:44:18;2.00;;;1.40;;
1090;SDS011;534;48.704;9.122;2023-04-25T04:46:45;2.30;;;1.00;;
1090;SDS011;534;48.704;9.122;2023-04-25T04:49:12;1.97;;;1.33;;
1090;SDS011;534;48.704;9.122;2023-04-25T04:51:40;1.97;;;1.13;;
1090;SDS011;534;48.704;9.122;2023-04-25T04:54:10;2.37;;;1.30;;
1090;SDS011;534;48.704;9.122;2023-04-25T04:56:37;2.30;;;1.43;;
1090;SDS011;534;48.704;9.122;2023-04-25T04:59:04;2.10;;;1.20;;
1090;SDS011;534;48.704;9.122;2023-04-25T05:01:32;2.27;;;1.40;;
1090;SDS011;534;48.704;9.122;2023-04-25T05:04:00;1.90;;;1.20;;
1090;SDS011;534;48.704;9.122;2023-04-25T05:06:27;2.10;;;1.37;;
1090;SDS011;534;48.704;9.122;2023-04-25T05:08:55;2.13;;;1.17;;
1090;SDS011;534;48.704;9.122;2023-04-25T05:11:23;1.80;;;1.00;;
1090;SDS011;534;48.704;9.122;2023-04-25T05:13:51;3.33;;;1.30;;
1090;SDS011;534;48.704;9.122;2023-04-25T05:16:18;3.33;;;1.20;;
1090;SDS011;534;48.704;9.122;2023-04-25T05:18:44;2.10;;;1.60;;
1090;SDS011;534;48.704;9.122;2023-04-25T05:21:11;2.30;;;1.70;;
1090;SDS011;534;48.704;9.122;2023-04-25T05:23:38;2.00;;;1.30;;
1090;SDS011;534;48.704;9.122;2023-04-25T05:26:05;2.47;;;1.50;;
1090;SDS011;534;48.704;9.122;2023-04-25T05:28:39;2.10;;;1.57;;
1090;SDS011;534;48.704;9.122;2023-04-25T05:31:06;3.60;;;1.53;;
1090;SDS011;534;48.704;9.122;2023-04-25T05:33:33;2.23;;;1.50;;
1090;SDS011;534;48.704;9.122;2023-04-25T05:36:00;2.03;;;1.23;;
1090;SDS011;534;48.704;9.122;2023-04-25T05:38:26;2.20;;;1.40;;
1090;SDS011;534;48.704;9.122;2023-04-25T05:40:53;3.20;;;1.60;;
1090;SDS011;534;48.704;9.122;2023-04-25T05:43:20;2.03;;;1.50;;
1090;SDS011;534;48.704;9.122;2023-04-25T05:45:48;1.90;;;1.33;;
1090;SDS011;534;48.704;9.122;2023-04-25T05:48:15;2.13;;;1.30;;
1090;SDS011;534;48.704;9.122;2023-04-25T05:50:41;2.53;;;1.80;;
1090;SDS011;534;48.704;9.122;2023-04-25T05:53:08;2.10;;;1.30;;
1090;SDS011;534;48.704;9.122;2023-04-25T05:55:35;3.00;;;1.53;;
1090;SDS011;534;48.704;9.122;2023-04-25T05:58:02;2.20;;;1.30;;
1090;SDS011;534;48.704;9.122;2023-04-25T06:00:28;1.83;;;1.17;;
1090;SDS011;534;48.704;9.122;2023-04-25T06:02:56;1.90;;;1.10;;
1090;SDS011;534;48.704;9.122;2023-04-25T06:05:23;2.50;;;1.37;;
1090;SDS011;534;48.704;9.122;2023-04-25T06:07:50;2.73;;;1.53;;
1090;SDS011;534;48.704;9.122;2023-04-25T06:10:16;2.10;;;1.50;;
1090;SDS011;534;48.704;9.122;2023-04-25T06:12:43;1.90;;;1.40;;
1090;SDS011;534;48.704;9.122;2023-04-25T06:15:10;2.20;;;1.40;;
1090;SDS011;534;48.704;9.122;2023-04-25T06:17:37;5.10;;;1.73;;
1090;SDS011;534;48.704;9.122;2023-04-25T06:20:05;2.47;;;1.57;;
1090;SDS011;534;48.704;9.122;2023-04-25T06:22:33;2.00;;;1.77;;
1090;SDS011;534;48.704;9.122;2023-04-25T06:25:00;2.57;;;1.67;;
1090;SDS011;534;48.704;9.122;2023-04-25T06:27:29;2.23;;;1.80;;
1090;SDS011;534;48.704;9.122;2023-04-25T06:29:55;2.23;;;1.63;;
1090;SDS011;534;48.704;9.122;2023-04-25T06:32:22;2.03;;;1.60;;
1090;SDS011;534;48.704;9.122;2023-04-25T06:34:49;2.37;;;1.90;;
1090;SDS011;534;48.704;9.122;2023-04-25T06:37:17;2.20;;;1.50;;
1090;SDS011;534;48.704;9.122;2023-04-25T06:39:43;2.10;;;1.60;;
1090;SDS011;534;48.704;9.122;2023-04-25T06:42:10;2.00;;;1.50;;
1090;SDS011;534;48.704;9.122;2023-04-25T06:44:37;2.33;;;1.43;;
1090;SDS011;534;48.704;9.122;2023-04-25T06:47:03;2.00;;;1.47;;
1090;SDS011;534;48.704;9.122;2023-04-25T06:49:30;2.67;;;1.50;;
1090;SDS011;534;48.704;9.122;2023-04-25T06:51:57;2.60;;;1.57;;
1090;SDS011;534;48.704;9.122;2023-04-25T06:54:25;2.23;;;1.43;;
1090;SDS011;534;48.704;9.122;2023-04-25T06:56:52;1.90;;;1.30;;
1090;SDS011;534;48.704;9.122;2023-04-25T06:59:18;1.70;;;1.13;;
1090;SDS011;534;48.704;9.122;2023-04-25T07:01:45;1.80;;;1.20;;
1090;SDS011;534;48.704;9.122;2023-04-25T07:04:12;1.90;;;1.30;;
1090;SDS011;534;48.704;9.122;2023-04-25T07:06:38;2.00;;;1.30;;
1090;SDS011;534;48.704;9.122;2023-04-25T07:09:07;2.10;;;1.27;;
1090;SDS011;534;48.704;9.122;2023-04-25T07:11:36;1.87;;;1.27;;
1090;SDS011;534;48.704;9.122;2023-04-25T07:14:03;2.00;;;1.30;;
1090;SDS011;534;48.704;9.122;2023-04-25T07:16:29;2.07;;;1.33;;
1090;SDS011;534;48.704;9.122;2023-04-25T07:18:56;2.30;;;1.80;;
1090;SDS011;534;48.704;9.122;2023-04-25T07:21:24;1.93;;;1.47;;
1090;SDS011;534;48.704;9.122;2023-04-25T07:23:51;2.10;;;1.20;;
1090;SDS011;534;48.704;9.122;2023-04-25T07:26:18;2.33;;;1.50;;
1090;SDS011;534;48.704;9.122;2023-04-25T07:28:46;2.07;;;1.50;;
1090;SDS011;534;48.704;9.122;2023-04-25T07:31:15;1.90;;;1.20;;
1090;SDS011;534;48.704;9.122;2023-04-25T07:33:43;2.27;;;1.40;;
1090;SDS011;534;48.704;9.122;2023-04-25T07:36:09;2.33;;;1.47;;
1090;SDS011;534;48.704;9.122;2023-04-25T07:38:37;1.90;;;1.10;;
1090;SDS011;534;48.704;9.122;2023-04-25T07:41:04;2.20;;;1.40;;
1090;SDS011;534;48.704;9.122;2023-04-25T07:43:30;2.37;;;1.60;;
1090;SDS011;534;48.704;9.122;2023-04-25T07:45:58;2.03;;;1.30;;
1090;SDS011;534;48.704;9.122;2023-04-25T07:48:25;1.87;;;1.40;;
1090;SDS011;534;48.704;9.122;2023-04-25T07:50:52;2.00;;;1.27;;
1090;SDS011;534;48.704;9.122;2023-04-25T07:53:18;2.00;;;1.47;;
1090;SDS011;534;48.704;9.122;2023-04-25T07:55:45;2.37;;;1.63;;
1090;SDS011;534;48.704;9.122;2023-04-25T07:58:11;2.03;;;1.60;;
1090;SDS011;534;48.704;9.122;2023-04-25T08:00:40;2.10;;;1.47;;
1090;SDS011;534;48.704;9.122;2023-04-25T08:03:09;3.90;;;2.00;;
1090;SDS011;534;48.704;9.122;2023-04-25T08:05:35;2.23;;;1.43;;
1090;SDS011;534;48.704;9.122;2023-04-25T08:08:02;2.37;;;1.60;;
1090;SDS011;534;48.704;9.122;2023-04-25T08:10:31;3.37;;;2.17;;
1090;SDS011;534;48.704;9.122;2023-04-25T08:12:58;3.00;;;1.80;;
1090;SDS011;534;48.704;9.122;2023-04-25T08:15:24;2.23;;;1.40;;
1090;SDS011;534;48.704;9.122;2023-04-25T08:17:51;3.20;;;2.10;;
1090;SDS011;534;48.704;9.122;2023-04-25T08:20:19;2.10;;;1.47;;
1090;SDS011;534;48.704;9.122;2023-04-25T08:22:46;2.40;;;1.97;;
1090;SDS011;534;48.704;9.122;2023-04-25T08:25:13;2.57;;;1.93;;
1090;SDS011;534;48.704;9.122;2023-04-25T08:27:40;2.47;;;2.00;;
1090;SDS011;534;48.704;9.122;2023-04-25T08:30:07;2.20;;;1.93;;
1090;SDS011;534;48.704;9.122;2023-04-25T08:32:34;2.60;;;1.87;;
1090;SDS011;534;48.704;9.122;2023-04-25T08:35:03;3.13;;;1.87;;
1090;SDS011;534;48.704;9.122;2023-04-25T08:37:31;3.50;;;2.13;;
1090;SDS011;534;48.704;9.122;2023-04-25T08:39:58;2.80;;;2.10;;
1090;SDS011;534;48.704;9.122;2023-04-25T08:42:26;2.87;;;1.77;;
1090;SDS011;534;48.704;9.122;2023-04-25T08:44:53;2.23;;;1.77;;
1090;SDS011;534;48.704;9.122;2023-04-25T08:47:21;2.70;;;2.13;;
1090;SDS011;534;48.704;9.122;2023-04-25T08:49:48;2.60;;;2.30;;
1090;SDS011;534;48.704;9.122;2023-04-25T08:52:17;2.40;;;1.80;;
1090;SDS011;534;48.704;9.122;2023-04-25T08:54:49;2.57;;;1.90;;
1090;SDS011;534;48.704;9.122;2023-04-25T08:57:18;3.33;;;2.70;;
1090;SDS011;534;48.704;9.122;2023-04-25T08:59:47;3.07;;;2.00;;
1090;SDS011;534;48.704;9.122;2023-04-25T09:02:14;4.73;;;2.47;;
1090;SDS011;534;48.704;9.122;2023-04-25T09:04:42;3.23;;;2.20;;
1090;SDS011;534;48.704;9.122;2023-04-25T09:07:10;3.20;;;2.47;;
1090;SDS011;534;48.704;9.122;2023-04-25T09:09:37;2.63;;;2.13;;
1090;SDS011;534;48.704;9.122;2023-04-25T09:12:06;2.47;;;1.60;;
1090;SDS011;534;48.704;9.122;2023-04-25T09:14:32;2.80;;;2.47;;
1090;SDS011;534;48.704;9.122;2023-04-25T09:17:00;2.10;;;1.80;;
1090;SDS011;534;48.704;9.122;2023-04-25T09:19:29;2.60;;;1.80;;
1090;SDS011;534;48.704;9.122;2023-04-25T09:21:57;2.70;;;1.63;;
1090;SDS011;534;48.704;9.122;2023-04-25T09:24:37;2.20;;;1.90;;
1090;SDS011;534;48.704;9.122;2023-04-25T09:27:08;2.40;;;1.97;;
1090;SDS011;534;48.704;9.122;2023-04-25T09:29:37;2.40;;;1.80;;
1090;SDS011;534;48.704;9.122;2023-04-25T09:32:10;2.30;;;2.00;;
1090;SDS011;534;48.704;9.122;2023-04-25T09:34:39;2.43;;;1.73;;
1090;SDS011;534;48.704;9.122;2023-04-25T09:37:07;2.73;;;1.70;;
1090;SDS011;534;48.704;9.122;2023-04-25T09:39:34;2.43;;;1.67;;
1090;SDS011;534;48.704;9.122;2023-04-25T09:42:01;2.13;;;1.80;;
1090;SDS011;534;48.704;9.122;2023-04-25T09:44:30;2.60;;;1.90;;
1090;SDS011;534;48.704;9.122;2023-04-25T09:46:57;2.30;;;1.60;;
1090;SDS011;534;48.704;9.122;2023-04-25T09:49:24;2.00;;;1.50;;
1090;SDS011;534;48.704;9.122;2023-04-25T09:51:54;2.20;;;1.67;;
1090;SDS011;534;48.704;9.122;2023-04-25T09:54:22;2.00;;;1.50;;
1090;SDS011;534;48.704;9.122;2023-04-25T09:56:49;2.30;;;1.60;;
1090;SDS011;534;48.704;9.122;2023-04-25T09:59:18;2.10;;;1.53;;
1090;SDS011;534;48.704;9.122;2023-04-25T10:01:48;2.53;;;1.60;;
1090;SDS011;534;48.704;9.122;2023-04-25T10:04:17;2.93;;;1.40;;
1090;SDS011;534;48.704;9.122;2023-04-25T10:06:49;2.20;;;1.53;;
1090;SDS011;534;48.704;9.122;2023-04-25T10:09:17;2.10;;;1.33;;
1090;SDS011;534;48.704;9.122;2023-04-25T10:11:46;2.00;;;1.20;;
1090;SDS011;534;48.704;9.122;2023-04-25T10:14:14;2.00;;;1.10;;
1090;SDS011;534;48.704;9.122;2023-04-25T10:16:42;1.60;;;0.80;;
1090;SDS011;534;48.704;9.122;2023-04-25T10:19:10;2.23;;;0.70;;
1090;SDS011;534;48.704;9.122;2023-04-25T10:21:39;1.60;;;0.83;;
1090;SDS011;534;48.704;9.122;2023-04-25T10:24:12;1.60;;;0.70;;
1090;SDS011;534;48.704;9.122;2023-04-25T10:26:39;1.70;;;0.73;;
1090;SDS011;534;48.704;9.122;2023-04-25T10:29:06;1.70;;;0.80;;
1090;SDS011;534;48.704;9.122;2023-04-25T10:31:33;2.10;;;0.80;;
1090;SDS011;534;48.704;9.122;2023-04-25T10:34:11;1.50;;;0.70;;
1090;SDS011;534;48.704;9.122;2023-04-25T10:36:38;1.60;;;0.80;;
1090;SDS011;534;48.704;9.122;2023-04-25T10:39:05;1.60;;;0.70;;
1090;SDS011;534;48.704;9.122;2023-04-25T10:41:45;1.80;;;0.73;;
1090;SDS011;534;48.704;9.122;2023-04-25T10:44:12;1.50;;;0.70;;
1090;SDS011;534;48.704;9.122;2023-04-25T10:46:40;1.60;;;0.70;;
1090;SDS011;534;48.704;9.122;2023-04-25T10:49:07;1.90;;;0.80;;
1090;SDS011;534;48.704;9.122;2023-04-25T10:51:36;1.80;;;0.90;;
1090;SDS011;534;48.704;9.122;2023-04-25T10:54:03;2.27;;;0.80;;
1090;SDS011;534;48.704;9.122;2023-04-25T10:56:31;1.50;;;0.60;;
1090;SDS011;534;48.704;9.122;2023-04-25T10:59:05;1.50;;;0.70;;
1090;SDS011;534;48.704;9.122;2023-04-25T11:01:35;1.73;;;0.70;;
1090;SDS011;534;48.704;9.122;2023-04-25T11:04:03;1.50;;;0.70;;
1090;SDS011;534;48.704;9.122;2023-04-25T11:06:33;1.77;;;0.80;;
1090;SDS011;534;48.704;9.122;2023-04-25T11:09:10;1.70;;;0.80;;
1090;SDS011;534;48.704;9.122;2023-04-25T11:11:39;1.73;;;0.77;;
1090;SDS011;534;48.704;9.122;2023-04-25T11:14:05;1.83;;;0.70;;
1090;SDS011;534;48.704;9.122;2023-04-25T11:16:32;1.60;;;0.70;;
1090;SDS011;534;48.704;9.122;2023-04-25T11:19:01;1.70;;;0.83;;
1090;SDS011;534;48.704;9.122;2023-04-25T11:21:28;1.67;;;0.97;;
1090;SDS011;534;48.704;9.122;2023-04-25T11:23:58;1.90;;;1.20;;
1090;SDS011;534;48.704;9.122;2023-04-25T11:26:25;1.80;;;1.10;;
1090;SDS011;534;48.704;9.122;2023-04-25T11:28:56;2.67;;;1.20;;
1090;SDS011;534;48.704;9.122;2023-04-25T11:31:24;1.83;;;1.03;;
1090;SDS011;534;48.704;9.122;2023-04-25T11:33:52;2.50;;;1.40;;
1090;SDS011;534;48.704;9.122;2023-04-25T11:36:19;2.00;;;1.00;;
1090;SDS011;534;48.704;9.122;2023-04-25T11:38:46;1.90;;;1.07;;
1090;SDS011;534;48.704;9.122;2023-04-25T11:41:14;1.97;;;1.10;;
1090;SDS011;534;48.704;9.122;2023-04-25T11:43:42;1.90;;;1.00;;
1090;SDS011;534;48.704;9.122;2023-04-25T11:46:09;2.50;;;1.00;;
1090;SDS011;534;48.704;9.122;2023-04-25T11:48:36;2.63;;;1.20;;
1090;SDS011;534;48.704;9.122;2023-04-25T11:51:04;1.80;;;1.20;;
1090;SDS011;534;48.704;9.122;2023-04-25T11:53:31;1.90;;;1.33;;
1090;SDS011;534;48.704;9.122;2023-04-25T11:55:58;2.80;;;1.40;;
1090;SDS011;534;48.704;9.122;2023-04-25T11:58:27;2.20;;;1.10;;
1090;SDS011;534;48.704;9.122;2023-04-25T12:00:53;1.93;;;1.17;;
1090;SDS011;534;48.704;9.122;2023-04-25T12:03:23;1.90;;;1.00;;
1090;SDS011;534;48.704;9.122;2023-04-25T12:05:52;1.77;;;1.10;;
1090;SDS011;534;48.704;9.122;2023-04-25T12:08:19;1.87;;;1.10;;
1090;SDS011;534;48.704;9.122;2023-04-25T12:10:45;2.23;;;1.17;;
1090;SDS011;534;48.704;9.122;2023-04-25T12:13:20;1.70;;;1.00;;
1090;SDS011;534;48.704;9.122;2023-04-25T12:15:48;2.43;;;1.40;;
1090;SDS011;534;48.704;9.122;2023-04-25T12:18:18;1.90;;;1.10;;
1090;SDS011;534;48.704;9.122;2023-04-25T12:20:45;1.80;;;1.10;;
1090;SDS011;534;48.704;9.122;2023-04-25T12:23:12;1.90;;;1.30;;
1090;SDS011;534;48.704;9.122;2023-04-25T12:25:39;3.37;;;1.60;;
1090;SDS011;534;48.704;9.122;2023-04-25T12:28:11;2.30;;;1.77;;
1090;SDS011;534;48.704;9.122;2023-04-25T12:30:55;2.10;;;1.50;;
1090;SDS011;534;48.704;9.122;2023-04-25T12:33:23;3.37;;;1.40;;
1090;SDS011;534;48.704;9.122;2023-04-25T12:35:51;2.20;;;1.73;;
1090;SDS011;534;48.704;9.122;2023-04-25T12:38:22;1.80;;;1.20;;
1090;SDS011;534;48.704;9.122;2023-04-25T12:40:50;1.90;;;1.30;;
1090;SDS011;534;48.704;9.122;2023-04-25T12:43:16;2.70;;;1.53;;
1090;SDS011;534;48.704;9.122;2023-04-25T12:45:43;2.27;;;1.67;;
1090;SDS011;534;48.704;9.122;2023-04-25T12:48:12;2.20;;;1.40;;
1090;SDS011;534;48.704;9.122;2023-04-25T12:50:38;4.97;;;2.00;;
1090;SDS011;534;48.704;9.122;2023-04-25T12:53:06;2.40;;;1.70;;
1090;SDS011;534;48.704;9.122;2023-04-25T12:55:33;4.00;;;2.00;;
1090;SDS011;534;48.704;9.122;2023-04-25T12:58:00;2.27;;;1.80;;
1090;SDS011;534;48.704;9.122;2023-04-25T13:00:27;3.23;;;2.17;;
1090;SDS011;534;48.704;9.122;2023-04-25T13:02:54;3.20;;;1.97;;
1090;SDS011;534;48.704;9.122;2023-04-25T13:05:22;2.60;;;1.70;;
1090;SDS011;534;48.704;9.122;2023-04-25T13:07:49;2.60;;;1.90;;
1090;SDS011;534;48.704;9.122;2023-04-25T13:10:16;2.90;;;2.10;;
1090;SDS011;534;48.704;9.122;2023-04-25T13:12:43;2.10;;;1.60;;
1090;SDS011;534;48.704;9.122;2023-04-25T13:15:10;2.47;;;1.80;;
1090;SDS011;534;48.704;9.122;2023-04-25T13:17:37;2.17;;;1.63;;
1090;SDS011;534;48.704;9.122;2023-04-25T13:20:05;2.30;;;2.00;;
1090;SDS011;534;48.704;9.122;2023-04-25T13:22:36;2.40;;;1.93;;
1090;SDS011;534;48.704;9.122;2023-04-25T13:25:04;2.00;;;1.50;;
1090;SDS011;534;48.704;9.122;2023-04-25T13:27:32;2.27;;;1.70;;
1090;SDS011;534;48.704;9.122;2023-04-25T13:30:01;2.33;;;1.97;;
1090;SDS011;534;48.704;9.122;2023-04-25T13:32:32;2.20;;;1.53;;
1090;SDS011;534;48.704;9.122;2023-04-25T13:34:59;2.83;;;1.60;;
1090;SDS011;534;48.704;9.122;2023-04-25T13:37:25;2.60;;;2.03;;
1090;SDS011;534;48.704;9.122;2023-04-25T13:39:54;2.23;;;1.80;;
1090;SDS011;534;48.704;9.122;2023-04-25T13:42:21;2.33;;;1.70;;
1090;SDS011;534;48.704;9.122;2023-04-25T13:44:49;2.50;;;2.00;;
1090;SDS011;534;48.704;9.122;2023-04-25T13:47:15;2.50;;;2.10;;
1090;SDS011;534;48.704;9.122;2023-04-25T13:49:42;2.50;;;1.97;;
1090;SDS011;534;48.704;9.122;2023-04-25T13:52:09;2.70;;;2.10;;
1090;SDS011;534;48.704;9.122;2023-04-25T13:54:35;2.60;;;2.33;;
1090;SDS011;534;48.704;9.122;2023-04-25T13:57:03;3.20;;;2.50;;
1090;SDS011;534;48.704;9.122;2023-04-25T13:59:30;3.33;;;3.03;;
1090;SDS011;534;48.704;9.122;2023-04-25T14:01:57;2.47;;;2.27;;
1090;SDS011;534;48.704;9.122;2023-04-25T14:04:24;3.10;;;2.80;;
1090;SDS011;534;48.704;9.122;2023-04-25T14:06:51;2.33;;;2.13;;
1090;SDS011;534;48.704;9.122;2023-04-25T14:09:18;3.10;;;2.57;;
1090;SDS011;534;48.704;9.122;2023-04-25T14:11:45;2.20;;;1.73;;
1090;SDS011;534;48.704;9.122;2023-04-25T14:14:14;3.23;;;2.93;;
1090;SDS011;534;48.704;9.122;2023-04-25T14:16:41;2.70;;;2.47;;
1090;SDS011;534;48.704;9.122;2023-04-25T14:19:08;3.43;;;2.63;;
1090;SDS011;534;48.704;9.122;2023-04-25T14:21:34;2.50;;;1.77;;
1090;SDS011;534;48.704;9.122;2023-04-25T14:24:01;2.67;;;2.40;;
1090;SDS011;534;48.704;9.122;2023-04-25T14:26:29;2.80;;;2.50;;
1090;SDS011;534;48.704;9.122;2023-04-25T14:28:56;2.53;;;2.33;;
1090;SDS011;534;48.704;9.122;2023-04-25T14:31:24;2.80;;;2.40;;
1090;SDS011;534;48.704;9.122;2023-04-25T14:33:51;2.53;;;2.07;;
1090;SDS011;534;48.704;9.122;2023-04-25T14:36:18;4.23;;;2.50;;
1090;SDS011;534;48.704;9.122;2023-04-25T14:38:45;2.30;;;1.73;;
1090;SDS011;534;48.704;9.122;2023-04-25T14:41:12;2.23;;;1.50;;
1090;SDS011;534;48.704;9.122;2023-04-25T14:43:38;2.10;;;1.70;;
1090;SDS011;534;48.704;9.122;2023-04-25T14:46:06;2.80;;;1.73;;
1090;SDS011;534;48.704;9.122;2023-04-25T14:48:34;2.40;;;1.80;;
1090;SDS011;534;48.704;9.122;2023-04-25T14:51:01;2.80;;;1.80;;
1090;SDS011;534;48.704;9.122;2023-04-25T14:53:27;2.80;;;1.63;;
1090;SDS011;534;48.704;9.122;2023-04-25T14:55:54;3.17;;;1.80;;
1090;SDS011;534;48.704;9.122;2023-04-25T14:58:21;2.17;;;1.60;;
1090;SDS011;534;48.704;9.122;2023-04-25T15:00:48;2.13;;;1.50;;
1090;SDS011;534;48.704;9.122;2023-04-25T15:03:15;2.13;;;1.67;;
1090;SDS011;534;48.704;9.122;2023-04-25T15:05:43;2.20;;;1.40;;
1090;SDS011;534;48.704;9.122;2023-04-25T15:08:10;2.43;;;1.83;;
1090;SDS011;534;48.704;9.122;2023-04-25T15:10:37;2.30;;;1.70;;
1090;SDS011;534;48.704;9.122;2023-04-25T15:13:03;1.90;;;1.40;;
1090;SDS011;534;48.704;9.122;2023-04-25T15:15:30;2.27;;;1.40;;
1090;SDS011;534;48.704;9.122;2023-04-25T15:17:57;2.47;;;1.63;;
1090;SDS011;534;48.704;9.122;2023-04-25T15:20:23;1.83;;;1.30;;
1090;SDS011;534;48.704;9.122;2023-04-25T15:22:51;2.00;;;1.47;;
1090;SDS011;534;48.704;9.122;2023-04-25T15:25:18;1.90;;;1.30;;
1090;SDS011;534;48.704;9.122;2023-04-25T15:27:46;1.80;;;1.30;;
1090;SDS011;534;48.704;9.122;2023-04-25T15:30:14;2.10;;;1.30;;
1090;SDS011;534;48.704;9.122;2023-04-25T15:32:41;1.73;;;1.17;;
1090;SDS011;534;48.704;9.122;2023-04-25T15:35:08;1.70;;;1.10;;
1090;SDS011;534;48.704;9.122;2023-04-25T15:37:36;1.90;;;1.17;;
1090;SDS011;534;48.704;9.122;2023-04-25T15:40:05;1.93;;;1.30;;
1090;SDS011;534;48.704;9.122;2023-04-25T15:42:34;1.97;;;1.33;;
1090;SDS011;534;48.704;9.122;2023-04-25T15:45:01;2.27;;;1.43;;
1090;SDS011;534;48.704;9.122;2023-04-25T15:47:29;1.90;;;1.20;;
1090;SDS011;534;48.704;9.122;2023-04-25T15:49:55;2.00;;;1.40;;
1090;SDS011;534;48.704;9.122;2023-04-25T15:52:22;2.07;;;1.40;;
1090;SDS011;534;48.704;9.122;2023-04-25T15:54:49;2.10;;;1.23;;
1090;SDS011;534;48.704;9.122;2023-04-25T15:57:18;1.73;;;1.13;;
1090;SDS011;534;48.704;9.122;2023-04-25T15:59:44;2.07;;;1.43;;
1090;SDS011;534;48.704;9.122;2023-04-25T16:02:11;2.50;;;1.47;;
1090;SDS011;534;48.704;9.122;2023-04-25T16:04:39;2.37;;;1.83;;
1090;SDS011;534;48.704;9.122;2023-04-25T16:07:05;2.10;;;1.50;;
1090;SDS011;534;48.704;9.122;2023-04-25T16:09:33;1.83;;;1.40;;
1090;SDS011;534;48.704;9.122;2023-04-25T16:11:59;2.53;;;1.90;;
1090;SDS011;534;48.704;9.122;2023-04-25T16:14:28;2.00;;;1.40;;
1090;SDS011;534;48.704;9.122;2023-04-25T16:16:55;1.97;;;1.40;;
1090;SDS011;534;48.704;9.122;2023-04-25T16:19:22;2.57;;;1.70;;
1090;SDS011;534;48.704;9.122;2023-04-25T16:21:48;2.40;;;1.90;;
1090;SDS011;534;48.704;9.122;2023-04-25T16:24:16;2.30;;;1.50;;
1090;SDS011;534;48.704;9.122;2023-04-25T16:26:42;2.80;;;1.70;;
1090;SDS011;534;48.704;9.122;2023-04-25T16:29:09;2.57;;;1.77;;
1090;SDS011;534;48.704;9.122;2023-04-25T16:31:39;2.07;;;1.50;;
1090;SDS011;534;48.704;9.122;2023-04-25T16:34:07;2.73;;;1.67;;
1090;SDS011;534;48.704;9.122;2023-04-25T16:36:34;2.10;;;1.63;;
1090;SDS011;534;48.704;9.122;2023-04-25T16:39:00;2.60;;;1.80;;
1090;SDS011;534;48.704;9.122;2023-04-25T16:41:27;3.33;;;2.23;;
1090;SDS011;534;48.704;9.122;2023-04-25T16:43:54;2.57;;;1.70;;
1090;SDS011;534;48.704;9.122;2023-04-25T16:46:20;3.30;;;2.37;;
1090;SDS011;534;48.704;9.122;2023-04-25T16:48:49;2.80;;;1.90;;
1090;SDS011;534;48.704;9.122;2023-04-25T16:51:16;3.10;;;2.10;;
1090;SDS011;534;48.704;9.122;2023-04-25T16:53:43;2.63;;;1.90;;
1090;SDS011;534;48.704;9.122;2023-04-25T16:56:10;2.10;;;1.77;;
1090;SDS011;534;48.704;9.122;2023-04-25T16:58:37;2.50;;;1.77;;
1090;SDS011;534;48.704;9.122;2023-04-25T17:01:04;2.27;;;2.00;;
1090;SDS011;534;48.704;9.122;2023-04-25T17:03:31;2.80;;;2.33;;
1090;SDS011;534;48.704;9.122;2023-04-25T17:05:59;2.50;;;1.70;;
1090;SDS011;534;48.704;9.122;2023-04-25T17:08:26;2.70;;;2.10;;
1090;SDS011;534;48.704;9.122;2023-04-25T17:10:53;3.00;;;2.03;;
1090;SDS011;534;48.704;9.122;2023-04-25T17:13:20;2.97;;;2.50;;
1090;SDS011;534;48.704;9.122;2023-04-25T17:15:48;2.20;;;1.70;;
1090;SDS011;534;48.704;9.122;2023-04-25T17:18:14;2.20;;;1.90;;
1090;SDS011;534;48.704;9.122;2023-04-25T17:20:41;2.33;;;1.97;;
1090;SDS011;534;48.704;9.122;2023-04-25T17:23:09;2.70;;;1.90;;
1090;SDS011;534;48.704;9.122;2023-04-25T17:25:36;2.43;;;1.87;;
1090;SDS011;534;48.704;9.122;2023-04-25T17:28:03;3.03;;;1.70;;
1090;SDS011;534;48.704;9.122;2023-04-25T17:30:30;2.20;;;1.50;;
1090;SDS011;534;48.704;9.122;2023-04-25T17:32:58;2.60;;;1.77;;
1090;SDS011;534;48.704;9.122;2023-04-25T17:35:25;2.30;;;1.70;;
1090;SDS011;534;48.704;9.122;2023-04-25T17:37:51;2.30;;;1.70;;
1090;SDS011;534;48.704;9.122;2023-04-25T17:40:20;2.63;;;1.67;;
1090;SDS011;534;48.704;9.122;2023-04-25T17:42:46;3.00;;;2.23;;
1090;SDS011;534;48.704;9.122;2023-04-25T17:45:13;3.20;;;2.07;;
1090;SDS011;534;48.704;9.122;2023-04-25T17:47:40;2.77;;;2.33;;
1090;SDS011;534;48.704;9.122;2023-04-25T17:50:07;3.30;;;2.30;;
1090;SDS011;534;48.704;9.122;2023-04-25T17:52:34;3.80;;;2.20;;
1090;SDS011;534;48.704;9.122;2023-04-25T17:55:02;2.47;;;1.80;;
1090;SDS011;534;48.704;9.122;2023-04-25T17:57:32;2.90;;;2.60;;
1090;SDS011;534;48.704;9.122;2023-04-25T17:59:58;2.67;;;2.17;;
1090;SDS011;534;48.704;9.122;2023-04-25T18:02:25;2.83;;;2.20;;
1090;SDS011;534;48.704;9.122;2023-04-25T18:04:52;2.83;;;2.30;;
1090;SDS011;534;48.704;9.122;2023-04-25T18:07:19;2.80;;;2.40;;
1090;SDS011;534;48.704;9.122;2023-04-25T18:09:46;3.03;;;2.40;;
1090;SDS011;534;48.704;9.122;2023-04-25T18:12:12;4.27;;;2.37;;
1090;SDS011;534;48.704;9.122;2023-04-25T18:14:41;3.47;;;2.83;;
1090;SDS011;534;48.704;9.122;2023-04-25T18:17:08;2.70;;;2.40;;
1090;SDS011;534;48.704;9.122;2023-04-25T18:19:36;2.80;;;2.50;;
1090;SDS011;534;48.704;9.122;2023-04-25T18:22:02;2.60;;;2.17;;
1090;SDS011;534;48.704;9.122;2023-04-25T18:24:29;3.00;;;2.70;;
1090;SDS011;534;48.704;9.122;2023-04-25T18:26:56;3.30;;;2.53;;
1090;SDS011;534;48.704;9.122;2023-04-25T18:29:25;3.23;;;2.53;;
1090;SDS011;534;48.704;9.122;2023-04-25T18:31:53;2.37;;;2.00;;
1090;SDS011;534;48.704;9.122;2023-04-25T18:34:20;3.03;;;2.50;;
1090;SDS011;534;48.704;9.122;2023-04-25T18:36:48;3.30;;;2.63;;
1090;SDS011;534;48.704;9.122;2023-04-25T18:39:16;2.50;;;1.90;;
1090;SDS011;534;48.704;9.122;2023-04-25T18:41:43;2.53;;;2.33;;
1090;SDS011;534;48.704;9.122;2023-04-25T18:44:09;2.30;;;1.93;;
1090;SDS011;534;48.704;9.122;2023-04-25T18:46:36;2.80;;;2.20;;
1090;SDS011;534;48.704;9.122;2023-04-25T18:49:06;3.50;;;1.90;;
1090;SDS011;534;48.704;9.122;2023-04-25T18:51:33;2.20;;;2.00;;
1090;SDS011;534;48.704;9.122;2023-04-25T18:54:01;2.23;;;1.80;;
1090;SDS011;534;48.704;9.122;2023-04-25T18:56:29;2.57;;;2.27;;
1090;SDS011;534;48.704;9.122;2023-04-25T18:58:56;3.27;;;2.33;;
1090;SDS011;534;48.704;9.122;2023-04-25T19:01:23;3.30;;;2.47;;
1090;SDS011;534;48.704;9.122;2023-04-25T19:03:51;3.80;;;2.73;;
1090;SDS011;534;48.704;9.122;2023-04-25T19:06:21;2.80;;;2.10;;
1090;SDS011;534;48.704;9.122;2023-04-25T19:08:48;4.10;;;2.30;;
1090;SDS011;534;48.704;9.122;2023-04-25T19:11:16;2.50;;;1.90;;
1090;SDS011;534;48.704;9.122;2023-04-25T19:13:43;2.43;;;2.20;;
1090;SDS011;534;48.704;9.122;2023-04-25T19:16:10;3.17;;;1.80;;
1090;SDS011;534;48.704;9.122;2023-04-25T19:18:36;2.63;;;2.13;;
1090;SDS011;534;48.704;9.122;2023-04-25T19:21:03;2.50;;;1.90;;
1090;SDS011;534;48.704;9.122;2023-04-25T19:23:33;2.67;;;2.10;;
1090;SDS011;534;48.704;9.122;2023-04-25T19:26:00;3.30;;;2.20;;
1090;SDS011;534;48.704;9.122;2023-04-25T19:28:27;2.33;;;2.00;;
1090;SDS011;534;48.704;9.122;2023-04-25T19:30:54;3.10;;;2.20;;
1090;SDS011;534;48.704;9.122;2023-04-25T19:33:21;1.97;;;1.50;;